createdAt,value
2022-08-05T00:00:32.737Z,96.21
2022-08-05T00:02:59.579Z,96.23
2022-08-05T00:06:02.495Z,96.28
2022-08-05T00:08:30.874Z,97.10
2022-08-05T00:11:01.610Z,97.40
2022-08-05T00:13:40.055Z,97.10
2022-08-05T00:16:13.910Z,97.35
2022-08-05T00:18:48.149Z,97.79
2022-08-05T00:21:16.828Z,98.01
2022-08-05T00:23:53.711Z,98.03
2022-08-05T00:26:32.138Z,99.26
2022-08-05T00:28:58.908Z,99.62
2022-08-05T00:31:54.291Z,99.86
2022-08-05T00:34:54.292Z,100.00
2022-08-05T00:37:10.923Z,100.00
2022-08-05T00:39:57.032Z,100.00
2022-08-05T00:42:36.835Z,100.00
2022-08-05T00:45:08.852Z,100.00
2022-08-05T00:47:56.676Z,99.93
2022-08-05T00:50:25.956Z,100.00
2022-08-05T00:52:55.066Z,100.00
2022-08-05T00:55:23.334Z,100.00
2022-08-05T00:58:11.115Z,100.00
2022-08-05T01:00:39.004Z,100.00
2022-08-05T01:03:07.585Z,99.62
2022-08-05T01:05:35.275Z,99.95
2022-08-05T01:08:40.334Z,100.00
2022-08-05T01:11:02.906Z,100.00
2022-08-05T01:13:59.174Z,100.00
2022-08-05T01:17:11.128Z,100.00
2022-08-05T01:20:02.452Z,100.00
2022-08-05T01:23:00.599Z,100.00
2022-08-05T01:26:08.209Z,100.00
2022-08-05T01:28:51.018Z,100.00
2022-08-05T01:31:42.538Z,100.00
2022-08-05T01:34:26.891Z,100.00
2022-08-05T01:37:09.622Z,100.00
2022-08-05T01:39:47.816Z,100.00
2022-08-05T01:42:19.515Z,100.00
2022-08-05T01:44:53.816Z,100.00
2022-08-05T01:47:23.022Z,100.00
2022-08-05T01:50:01.612Z,100.00
2022-08-05T01:52:31.663Z,100.00
2022-08-05T01:55:04.376Z,100.00
2022-08-05T01:58:11.775Z,100.00
2022-08-05T02:00:21.258Z,100.00
2022-08-05T02:03:31.887Z,100.00
2022-08-05T02:06:03.693Z,100.00
2022-08-05T02:08:58.164Z,100.00
2022-08-05T02:11:32.806Z,100.00
2022-08-05T02:14:13.156Z,100.00
2022-08-05T02:16:46.684Z,100.00
2022-08-05T02:19:28.494Z,100.00
2022-08-05T02:22:17.428Z,100.00
2022-08-05T02:24:56.795Z,100.00
2022-08-05T02:27:30.219Z,100.00
2022-08-05T02:30:17.733Z,100.00
2022-08-05T02:32:50.142Z,100.00
2022-08-05T02:35:27.703Z,100.00
2022-08-05T02:37:59.091Z,100.00
2022-08-05T02:40:27.711Z,100.00
2022-08-05T02:42:56.459Z,100.00
2022-08-05T02:45:25.672Z,100.00
2022-08-05T02:48:06.943Z,100.00
2022-08-05T02:50:43.962Z,100.00
2022-08-05T02:53:19.150Z,100.00
2022-08-05T02:55:59.527Z,100.00
2022-08-05T02:58:28.895Z,100.00
2022-08-05T03:01:01.973Z,100.00
2022-08-05T03:03:34.094Z,100.00
2022-08-05T03:06:53.762Z,100.00
2022-08-05T03:09:05.335Z,100.00
2022-08-05T03:11:57.587Z,100.00
2022-08-05T03:14:21.484Z,100.00
2022-08-05T03:16:48.431Z,100.00
2022-08-05T03:19:20.370Z,100.00
2022-08-05T03:22:01.577Z,100.00
2022-08-05T03:24:30.802Z,100.00
2022-08-05T03:27:00.875Z,100.00
2022-08-05T03:29:45.119Z,100.00
2022-08-05T03:32:15.967Z,100.00
2022-08-05T03:34:49.613Z,100.00
2022-08-05T03:37:19.599Z,100.00
2022-08-05T03:39:59.395Z,100.00
2022-08-05T03:42:32.329Z,100.00
2022-08-05T03:45:01.775Z,100.00
2022-08-05T03:47:35.182Z,100.00
2022-08-05T03:50:02.531Z,100.00
2022-08-05T03:52:38.144Z,100.00
2022-08-05T03:56:06.119Z,100.00
2022-08-05T03:58:18.039Z,100.00
2022-08-05T04:00:46.445Z,100.00
2022-08-05T04:03:28.509Z,100.00
2022-08-05T04:05:58.040Z,100.00
2022-08-05T04:08:34.892Z,100.00
2022-08-05T04:11:05.245Z,100.00
2022-08-05T04:13:50.673Z,100.00
2022-08-05T04:16:25.275Z,100.00
2022-08-05T04:18:54.343Z,100.00
2022-08-05T04:22:05.842Z,100.00
2022-08-05T04:24:18.774Z,100.00
2022-08-05T04:26:50.241Z,100.00
2022-08-05T04:29:17.101Z,100.00
2022-08-05T04:31:43.884Z,100.00
2022-08-05T04:34:33.031Z,100.00
2022-08-05T04:36:58.157Z,100.00
2022-08-05T04:39:27.503Z,100.00
2022-08-05T04:41:55.440Z,100.00
2022-08-05T04:44:30.033Z,100.00
2022-08-05T04:47:08.784Z,100.00
2022-08-05T04:50:00.964Z,100.00
2022-08-05T04:52:27.388Z,100.00
2022-08-05T04:54:56.926Z,100.00
2022-08-05T04:57:28.737Z,100.00
2022-08-05T04:59:58.955Z,100.00
2022-08-05T05:02:36.202Z,100.00
2022-08-05T05:05:25.955Z,99.09
2022-08-05T05:07:56.589Z,98.80
2022-08-05T05:10:29.619Z,98.40
2022-08-05T05:12:56.852Z,97.28
2022-08-05T05:15:57.471Z,96.93
2022-08-05T05:18:28.459Z,97.83
2022-08-05T05:21:00.530Z,93.13
2022-08-05T05:23:27.351Z,91.14
2022-08-05T05:26:14.329Z,90.99
2022-08-05T05:28:42.841Z,90.66
2022-08-05T05:31:12.293Z,91.01
2022-08-05T05:33:58.546Z,90.17
2022-08-05T05:36:28.687Z,90.11
2022-08-05T05:38:57.394Z,90.78
2022-08-05T05:41:25.040Z,91.58
2022-08-05T05:44:36.848Z,90.13
2022-08-05T05:46:53.815Z,88.63
2022-08-05T05:49:23.415Z,86.98
2022-08-05T05:51:50.905Z,86.55
2022-08-05T05:54:20.700Z,86.24
2022-08-05T05:56:48.080Z,86.67
2022-08-05T05:59:14.951Z,86.43
2022-08-05T06:01:57.669Z,86.17
2022-08-05T06:04:25.181Z,84.20
2022-08-05T06:06:52.013Z,83.88
2022-08-05T06:09:27.466Z,81.13
2022-08-05T06:12:06.496Z,81.66
2022-08-05T06:14:36.661Z,80.64
2022-08-05T06:17:32.254Z,81.05
2022-08-05T06:19:56.851Z,81.74
2022-08-05T06:22:28.690Z,81.40
2022-08-05T06:24:56.439Z,80.93
2022-08-05T06:28:08.942Z,80.25
2022-08-05T06:30:19.915Z,79.26
2022-08-05T06:32:48.520Z,79.21
2022-08-05T06:36:03.159Z,77.84
2022-08-05T06:38:11.190Z,76.70
2022-08-05T06:40:42.041Z,76.56
2022-08-05T06:43:59.048Z,75.44
2022-08-05T06:46:06.662Z,74.68
2022-08-05T06:48:54.770Z,73.77
2022-08-05T06:51:29.375Z,73.70
2022-08-05T06:54:02.028Z,73.04
2022-08-05T06:56:29.961Z,73.34
2022-08-05T06:59:00.154Z,72.49
2022-08-05T07:01:32.479Z,71.31
2022-08-05T07:04:03.189Z,71.32
2022-08-05T07:06:30.443Z,70.46
2022-08-05T07:09:00.062Z,69.68
2022-08-05T07:11:31.612Z,69.28
2022-08-05T07:14:29.923Z,67.61
2022-08-05T07:18:08.592Z,68.78
2022-08-05T07:22:39.505Z,65.82
2022-08-05T07:25:23.148Z,64.09
2022-08-05T07:28:01.405Z,63.76
2022-08-05T07:30:38.322Z,63.45
2022-08-05T07:33:16.672Z,63.94
2022-08-05T07:36:02.762Z,62.54
2022-08-05T07:38:42.823Z,59.83
2022-08-05T07:42:09.013Z,59.86
2022-08-05T07:44:03.158Z,61.99
2022-08-05T07:46:33.773Z,56.11
2022-08-05T07:49:05.864Z,55.07
2022-08-05T07:51:36.645Z,56.02
2022-08-05T07:54:05.448Z,58.19
2022-08-05T07:57:02.527Z,57.97
2022-08-05T07:59:23.207Z,56.89
2022-08-05T08:01:58.608Z,55.75
2022-08-05T08:04:37.866Z,54.93
2022-08-05T08:07:07.376Z,55.88
2022-08-05T08:09:34.922Z,53.30
2022-08-05T08:12:09.704Z,52.05
2022-08-05T08:14:46.887Z,49.11
2022-08-05T08:17:16.188Z,49.54
2022-08-05T08:20:42.926Z,50.42
2022-08-05T08:22:32.973Z,50.42
2022-08-05T08:25:03.466Z,49.56
2022-08-05T08:27:40.280Z,48.39
2022-08-05T08:30:29.415Z,48.15
2022-08-05T08:33:04.658Z,46.75
2022-08-05T08:35:40.878Z,46.52
2022-08-05T08:38:11.599Z,45.29
2022-08-05T08:40:50.545Z,44.55
2022-08-05T08:44:57.883Z,44.05
2022-08-05T08:46:09.956Z,42.88
2022-08-05T08:49:07.776Z,43.28
2022-08-05T08:52:03.596Z,42.15
2022-08-05T08:54:22.067Z,40.42
2022-08-05T08:56:56.625Z,38.92
2022-08-05T08:59:27.645Z,38.68
2022-08-05T09:02:01.901Z,38.41
2022-08-05T09:04:30.365Z,37.21
2022-08-05T09:06:58.475Z,37.63
2022-08-05T09:09:34.635Z,36.24
2022-08-05T09:12:13.568Z,36.43
2022-08-05T09:14:58.676Z,37.10
2022-08-05T09:17:42.881Z,36.87
2022-08-05T09:20:36.552Z,37.44
2022-08-05T09:23:07.746Z,35.84
2022-08-05T09:26:02.926Z,36.14
2022-08-05T09:28:32.340Z,35.24
2022-08-05T09:31:22.121Z,35.16
2022-08-05T09:34:06.294Z,34.33
2022-08-05T09:36:54.223Z,32.86
2022-08-05T09:39:39.306Z,33.89
2022-08-05T09:42:23.473Z,32.87
2022-08-05T09:44:56.438Z,32.70
2022-08-05T09:47:34.937Z,31.76
2022-08-05T09:50:05.333Z,32.45
2022-08-05T09:52:36.421Z,32.33
2022-08-05T09:55:58.453Z,32.64
2022-08-05T09:58:00.075Z,31.34
2022-08-05T10:00:29.501Z,32.62
2022-08-05T10:02:58.507Z,30.87
2022-08-05T10:05:28.283Z,31.46
2022-08-05T10:08:36.106Z,30.62
2022-08-05T10:10:50.352Z,29.41
2022-08-05T10:13:47.546Z,30.42
2022-08-05T10:16:36.876Z,29.31
2022-08-05T10:19:09.144Z,28.89
2022-08-05T10:21:40.188Z,28.67
2022-08-05T10:24:13.890Z,28.72
2022-08-05T10:26:51.996Z,28.50
2022-08-05T10:30:05.773Z,29.33
2022-08-05T10:32:52.800Z,28.16
2022-08-05T10:35:01.089Z,27.88
2022-08-05T10:37:43.914Z,28.09
2022-08-05T10:40:28.309Z,26.14
2022-08-05T10:43:08.056Z,25.61
2022-08-05T10:45:40.351Z,25.53
2022-08-05T10:48:56.700Z,26.55
2022-08-05T10:51:29.056Z,25.53
2022-08-05T10:54:28.741Z,25.24
2022-08-05T10:56:53.065Z,25.47
2022-08-05T11:00:02.482Z,24.80
2022-08-05T11:02:37.767Z,23.75
2022-08-05T11:05:06.061Z,22.33
2022-08-05T11:08:02.649Z,21.93
2022-08-05T11:10:27.255Z,22.33
2022-08-05T11:12:56.321Z,22.44
2022-08-05T11:16:00.254Z,20.08
2022-08-05T11:18:26.697Z,20.70
2022-08-05T11:20:54.067Z,19.39
2022-08-05T11:24:05.093Z,19.56
2022-08-05T11:26:28.886Z,20.29
2022-08-05T11:29:13.385Z,19.35
2022-08-05T11:31:54.441Z,18.97
2022-08-05T11:34:51.478Z,19.97
2022-08-05T11:38:36.741Z,20.50
2022-08-05T11:41:12.926Z,19.00
2022-08-05T11:44:05.002Z,18.26
2022-08-05T11:46:35.977Z,19.68
2022-08-05T11:49:05.129Z,19.72
2022-08-05T11:51:44.302Z,20.56
2022-08-05T11:54:32.724Z,19.77
2022-08-05T11:57:08.288Z,20.25
2022-08-05T11:59:50.802Z,19.96
2022-08-05T12:02:24.152Z,19.74
2022-08-05T12:04:59.893Z,20.42
2022-08-05T12:08:04.437Z,20.10
2022-08-05T12:10:23.066Z,20.28
2022-08-05T12:12:59.495Z,20.08
2022-08-05T12:15:38.256Z,19.76
2022-08-05T12:18:11.142Z,19.47
2022-08-05T12:20:39.608Z,20.23
2022-08-05T12:23:09.988Z,18.67
2022-08-05T12:26:09.541Z,18.09
2022-08-05T12:28:38.006Z,17.95
2022-08-05T12:31:06.302Z,17.00
2022-08-05T12:33:36.606Z,16.78
2022-08-05T12:36:07.924Z,16.40
2022-08-05T12:38:37.631Z,17.26
2022-08-05T12:41:16.244Z,16.50
2022-08-05T12:43:56.882Z,17.27
2022-08-05T12:46:29.413Z,16.66
2022-08-05T12:48:58.071Z,18.19
2022-08-05T12:52:14.199Z,17.43
2022-08-05T12:54:26.513Z,18.42
2022-08-05T12:56:54.786Z,18.19
2022-08-05T12:59:27.778Z,17.84
2022-08-05T13:02:16.964Z,17.94
2022-08-05T13:04:52.439Z,18.73
2022-08-05T13:07:56.129Z,18.70
2022-08-05T13:10:12.544Z,18.49
2022-08-05T13:12:51.130Z,17.01
2022-08-05T13:15:41.979Z,17.35
2022-08-05T13:18:20.133Z,16.08
2022-08-05T13:20:49.881Z,16.04
2022-08-05T13:23:22.292Z,15.87
2022-08-05T13:25:58.658Z,15.49
2022-08-05T13:28:28.059Z,15.19
2022-08-05T15:17:55.822Z,19.98
2022-08-05T15:20:24.655Z,20.18
2022-08-05T15:22:55.008Z,20.31
2022-08-05T15:25:52.971Z,19.73
2022-08-05T15:28:15.829Z,19.58
2022-08-05T15:30:45.774Z,19.75
2022-08-05T15:33:56.923Z,19.18
2022-08-05T15:36:03.659Z,18.68
2022-08-05T15:38:41.859Z,17.64
2022-08-05T15:41:23.077Z,17.54
2022-08-05T15:43:52.197Z,16.17
2022-08-05T15:46:24.437Z,16.62
2022-08-05T15:48:58.001Z,16.98
2022-08-05T15:52:04.373Z,18.87
2022-08-05T15:54:34.732Z,18.36
2022-08-05T15:57:02.291Z,17.74
2022-08-05T15:59:29.117Z,17.76
2022-08-05T16:01:56.135Z,17.28
2022-08-05T16:04:26.361Z,17.04
2022-08-05T16:06:56.518Z,17.31
2022-08-05T16:09:25.637Z,17.08
2022-08-05T16:11:54.103Z,17.50
2022-08-05T16:14:22.340Z,17.16
2022-08-05T16:16:49.774Z,17.36
2022-08-05T16:19:25.894Z,18.46
2022-08-05T16:22:04.151Z,18.22
2022-08-05T16:24:40.241Z,17.74
2022-08-05T16:27:09.716Z,18.07
2022-08-05T16:29:47.232Z,17.72
2022-08-05T16:32:17.428Z,17.99
2022-08-05T16:34:50.859Z,18.09
2022-08-05T16:38:15.172Z,18.30
2022-08-05T16:40:13.460Z,18.64
2022-08-05T16:42:52.150Z,18.67
2022-08-05T16:46:07.518Z,18.94
2022-08-05T16:48:06.160Z,20.00
2022-08-05T16:50:33.073Z,20.32
2022-08-05T16:53:01.676Z,20.09
2022-08-05T16:55:47.155Z,20.17
2022-08-05T16:58:19.809Z,20.38
2022-08-05T17:00:49.551Z,20.89
2022-08-05T17:03:20.627Z,21.60
2022-08-05T17:05:53.701Z,22.07
2022-08-05T17:08:36.134Z,22.50
2022-08-05T17:11:12.676Z,23.85
2022-08-05T17:13:45.461Z,24.35
2022-08-05T17:16:32.896Z,24.90
2022-08-05T17:19:00.216Z,25.33
2022-08-05T17:21:35.968Z,26.31
2022-08-05T17:24:19.757Z,26.79
2022-08-05T17:26:52.883Z,27.13
2022-08-05T17:29:22.304Z,27.57
2022-08-05T17:31:58.353Z,28.20
2022-08-05T17:34:32.060Z,28.58
2022-08-05T17:37:00.378Z,29.18
2022-08-05T17:39:34.269Z,28.88
2022-08-05T17:42:18.996Z,29.49
2022-08-05T17:44:51.638Z,30.13
2022-08-05T17:47:22.986Z,30.80
2022-08-05T17:50:03.972Z,30.74
2022-08-05T17:52:34.900Z,31.58
2022-08-05T17:55:21.243Z,32.65
2022-08-05T17:57:50.329Z,32.87
2022-08-05T18:00:19.127Z,32.90
2022-08-05T18:02:47.593Z,33.52
2022-08-05T18:05:16.972Z,33.56
2022-08-05T18:07:44.882Z,33.94
2022-08-05T18:10:20.387Z,33.84
2022-08-05T18:12:48.066Z,34.23
2022-08-05T18:15:14.994Z,35.03
2022-08-05T18:17:59.099Z,35.86
2022-08-05T18:20:32.771Z,36.43
2022-08-05T18:23:11.313Z,38.27
2022-08-05T18:25:45.217Z,38.43
2022-08-05T18:28:16.229Z,39.26
2022-08-05T18:30:51.080Z,39.81
2022-08-05T18:33:22.687Z,40.10
2022-08-05T18:36:00.096Z,41.00
2022-08-05T18:38:36.401Z,40.77
2022-08-05T18:41:57.470Z,40.89
2022-08-05T18:43:53.283Z,41.26
2022-08-05T18:46:20.645Z,41.90
2022-08-05T18:48:53.951Z,43.01
2022-08-05T18:52:05.024Z,44.11
2022-08-05T18:54:27.621Z,44.74
2022-08-05T18:56:57.924Z,45.11
2022-08-05T18:59:43.523Z,46.32
2022-08-05T19:02:26.501Z,47.42
2022-08-05T19:05:01.408Z,48.15
2022-08-05T19:07:46.003Z,48.78
2022-08-05T19:10:14.792Z,49.49
2022-08-05T19:12:43.290Z,48.67
2022-08-05T19:15:56.948Z,48.71
2022-08-05T19:18:08.579Z,48.37
2022-08-05T19:20:41.483Z,48.27
2022-08-05T19:24:04.140Z,48.51
2022-08-05T19:26:02.102Z,48.62
2022-08-05T19:28:33.103Z,49.10
2022-08-05T19:31:01.086Z,49.15
2022-08-05T19:33:36.275Z,50.00
2022-08-05T19:36:08.851Z,50.97
2022-08-05T19:38:36.590Z,50.93
2022-08-05T19:41:08.936Z,50.72
2022-08-05T19:44:05.940Z,51.20
2022-08-05T19:46:29.367Z,52.03
2022-08-05T19:49:03.575Z,52.64
2022-08-05T19:52:13.336Z,53.39
2022-08-05T19:54:31.443Z,54.35
2022-08-05T19:56:59.714Z,55.40
2022-08-05T19:59:55.505Z,55.87
2022-08-05T20:02:18.214Z,56.78
2022-08-05T20:04:48.241Z,57.17
2022-08-05T20:07:15.875Z,56.13
2022-08-05T20:10:11.795Z,55.42
2022-08-05T20:12:46.327Z,56.15
2022-08-05T20:15:23.002Z,57.98
2022-08-05T20:18:11.006Z,58.47
2022-08-05T20:20:51.922Z,58.56
2022-08-05T20:23:22.357Z,58.78
2022-08-05T20:25:49.247Z,58.84
2022-08-05T20:28:20.508Z,59.69
2022-08-05T20:30:49.095Z,59.97
2022-08-05T20:33:16.329Z,60.53
2022-08-05T20:35:45.498Z,60.45
2022-08-05T20:38:20.158Z,61.19
2022-08-05T20:40:53.706Z,61.78
2022-08-05T20:43:57.555Z,61.66
2022-08-05T20:46:10.279Z,62.86
2022-08-05T20:48:45.235Z,62.83
2022-08-05T20:51:18.187Z,63.61
2022-08-05T20:53:56.955Z,63.51
2022-08-05T20:56:31.846Z,63.45
2022-08-05T20:59:11.288Z,64.22
2022-08-05T21:01:42.973Z,64.79
2022-08-05T21:04:11.852Z,64.81
2022-08-05T21:06:45.559Z,65.68
2022-08-05T21:09:14.885Z,65.94
2022-08-05T21:12:07.685Z,66.62
2022-08-05T21:14:34.948Z,66.34
2022-08-05T21:17:05.087Z,66.58
2022-08-05T21:19:46.826Z,67.08
2022-08-05T21:22:23.182Z,67.04
2022-08-05T21:24:52.373Z,67.94
2022-08-05T21:27:25.391Z,68.54
2022-08-05T21:29:56.467Z,69.34
2022-08-05T21:32:26.921Z,68.97
2022-08-05T21:35:08.421Z,69.44
2022-08-05T21:37:53.027Z,70.14
2022-08-05T21:40:24.147Z,70.02
2022-08-05T21:42:53.736Z,70.18
2022-08-05T21:45:25.257Z,69.71
2022-08-05T21:48:10.191Z,70.49
2022-08-05T21:50:41.668Z,70.98
2022-08-05T21:53:20.067Z,70.68
2022-08-05T21:56:04.211Z,71.44
2022-08-05T21:58:34.020Z,71.27
2022-08-05T22:01:01.399Z,71.07
2022-08-05T22:03:48.473Z,71.49
2022-08-05T22:06:22.854Z,71.20
2022-08-05T22:09:02.026Z,70.66
2022-08-05T22:11:41.562Z,70.66
2022-08-05T22:14:33.397Z,71.35
2022-08-05T22:17:03.081Z,71.66
2022-08-05T22:20:03.414Z,71.58
2022-08-05T22:22:27.912Z,71.98
2022-08-05T22:25:27.327Z,73.52
2022-08-05T22:28:11.198Z,72.73
2022-08-05T22:30:44.162Z,73.82
2022-08-05T22:33:57.881Z,75.69
2022-08-05T22:36:15.512Z,74.82
2022-08-05T22:38:48.510Z,75.07
2022-08-05T22:41:26.187Z,75.64
2022-08-05T22:44:08.187Z,76.34
2022-08-05T22:46:39.757Z,76.75
2022-08-05T22:49:23.429Z,76.37
2022-08-05T22:52:06.873Z,76.60
2022-08-05T22:54:36.892Z,77.19
2022-08-05T22:57:05.663Z,77.76
2022-08-05T22:59:46.311Z,77.88
2022-08-05T23:02:29.208Z,78.54
2022-08-05T23:04:58.058Z,79.19
2022-08-05T23:07:30.266Z,78.71
2022-08-05T23:10:01.662Z,79.25
2022-08-05T23:12:32.907Z,78.42
2022-08-05T23:15:03.314Z,79.13
2022-08-05T23:17:35.106Z,77.88
2022-08-05T23:20:16.326Z,77.81
2022-08-05T23:22:47.496Z,78.61
2022-08-05T23:25:51.305Z,78.57
2022-08-05T23:28:07.120Z,79.64
2022-08-05T23:30:40.113Z,79.76
2022-08-05T23:33:16.486Z,81.35
2022-08-05T23:35:50.785Z,81.78
2022-08-05T23:38:18.403Z,83.05
2022-08-05T23:40:49.412Z,83.59
2022-08-05T23:43:25.047Z,84.10
2022-08-05T23:46:19.802Z,84.93
2022-08-05T23:48:59.876Z,85.28
2022-08-05T23:52:07.630Z,85.73
2022-08-05T23:54:38.089Z,85.61
2022-08-05T23:57:06.914Z,86.01
